createdAt,value
2018-05-16T00:00:12.981Z,9.03
2018-05-16T00:02:39.164Z,8.63
2018-05-16T00:05:05.358Z,8.73
2018-05-16T00:07:31.594Z,10.20
2018-05-16T00:09:57.777Z,9.27
2018-05-16T00:12:23.988Z,9.10
2018-05-16T00:14:50.240Z,10.43
2018-05-16T00:17:17.193Z,12.27
2018-05-16T00:19:44.500Z,9.30
2018-05-16T00:22:10.689Z,10.60
2018-05-16T00:24:36.878Z,9.00
2018-05-16T00:27:03.064Z,10.50
2018-05-16T00:29:29.260Z,10.83
2018-05-16T00:31:56.189Z,9.37
2018-05-16T00:34:23.242Z,11.60
2018-05-16T00:36:49.437Z,12.20
2018-05-16T00:39:15.625Z,9.53
2018-05-16T00:41:41.820Z,12.47
2018-05-16T00:44:08.744Z,9.73
2018-05-16T00:46:34.978Z,10.03
2018-05-16T00:49:01.172Z,10.37
2018-05-16T00:51:31.291Z,10.77
2018-05-16T00:53:57.525Z,9.87
2018-05-16T00:56:23.730Z,10.40
2018-05-16T00:58:50.047Z,9.10
2018-05-16T01:01:17.054Z,9.50
2018-05-16T01:03:43.357Z,10.00
2018-05-16T01:06:09.812Z,10.50
2018-05-16T01:08:36.040Z,11.40
2018-05-16T01:11:02.248Z,9.57
2018-05-16T01:13:28.454Z,10.70
2018-05-16T01:15:54.684Z,9.63
2018-05-16T01:18:20.928Z,10.67
2018-05-16T01:20:47.869Z,10.27
2018-05-16T01:23:14.049Z,9.87
2018-05-16T01:25:40.244Z,10.47
2018-05-16T01:28:06.599Z,10.47
2018-05-16T01:30:32.800Z,10.70
2018-05-16T01:32:58.993Z,10.40
2018-05-16T01:35:25.186Z,10.80
2018-05-16T01:37:51.541Z,9.87
2018-05-16T01:40:18.493Z,10.43
2018-05-16T01:42:45.483Z,12.03
2018-05-16T01:45:11.684Z,11.03
2018-05-16T01:47:38.076Z,11.97
2018-05-16T01:50:04.268Z,10.77
2018-05-16T01:52:30.471Z,11.10
2018-05-16T01:54:57.426Z,11.43
2018-05-16T01:57:23.625Z,11.37
2018-05-16T01:59:49.856Z,11.20
2018-05-16T02:02:16.919Z,11.27
2018-05-16T02:04:43.836Z,11.70
2018-05-16T02:07:10.013Z,11.43
2018-05-16T02:09:36.213Z,12.07
2018-05-16T02:12:03.239Z,11.90
2018-05-16T02:14:29.588Z,11.47
2018-05-16T02:16:56.512Z,12.13
2018-05-16T02:19:22.718Z,13.70
2018-05-16T02:21:48.908Z,11.70
2018-05-16T02:24:15.145Z,12.77
2018-05-16T02:26:41.353Z,13.03
2018-05-16T02:29:08.280Z,12.83
2018-05-16T02:31:34.505Z,12.47
2018-05-16T02:34:00.693Z,12.67
2018-05-16T02:36:26.895Z,13.17
2018-05-16T02:38:53.929Z,12.87
2018-05-16T02:41:20.857Z,12.80
2018-05-16T02:43:47.043Z,11.57
2018-05-16T02:46:13.250Z,12.70
2018-05-16T02:48:39.428Z,12.10
2018-05-16T02:51:05.620Z,12.00
2018-05-16T02:53:31.932Z,12.07
2018-05-16T02:55:58.120Z,13.30
2018-05-16T02:58:24.319Z,13.67
2018-05-16T03:00:50.512Z,12.87
2018-05-16T03:03:17.465Z,14.10
2018-05-16T03:05:43.657Z,12.80
2018-05-16T03:08:09.835Z,12.50
2018-05-16T03:10:36.021Z,13.33
2018-05-16T03:13:02.971Z,13.43
2018-05-16T03:15:30.058Z,13.40
2018-05-16T03:17:56.232Z,13.93
2018-05-16T03:20:22.615Z,13.77
2018-05-16T03:22:48.824Z,13.97
2018-05-16T03:25:15.017Z,15.70
2018-05-16T03:27:41.644Z,16.67
2018-05-16T03:30:07.860Z,15.87
2018-05-16T03:32:34.045Z,14.07
2018-05-16T03:35:00.999Z,14.50
2018-05-16T03:37:27.929Z,14.30
2018-05-16T03:39:54.906Z,16.33
2018-05-16T03:42:21.311Z,14.83
2018-05-16T03:44:47.873Z,13.30
2018-05-16T03:47:14.136Z,14.57
2018-05-16T03:49:40.356Z,14.03
2018-05-16T03:52:06.807Z,14.47
2018-05-16T03:54:32.882Z,13.53
2018-05-16T03:56:59.080Z,15.20
2018-05-16T03:59:37.402Z,16.13
2018-05-16T04:02:16.616Z,16.47
2018-05-16T04:04:42.825Z,16.03
2018-05-16T04:07:09.030Z,15.17
2018-05-16T04:09:35.965Z,15.67
2018-05-16T04:12:02.546Z,14.83
2018-05-16T04:14:28.802Z,15.87
2018-05-16T04:16:55.748Z,16.40
2018-05-16T04:19:22.694Z,16.03
2018-05-16T04:21:49.706Z,16.00
2018-05-16T04:24:15.905Z,16.63
2018-05-16T04:26:42.125Z,16.67
2018-05-16T04:29:08.340Z,16.40
2018-05-16T04:31:35.292Z,17.30
2018-05-16T04:34:02.412Z,16.97
2018-05-16T04:36:29.234Z,15.57
2018-05-16T04:38:55.422Z,17.03
2018-05-16T04:41:21.616Z,18.60
2018-05-16T04:43:47.832Z,17.43
2018-05-16T04:46:14.109Z,17.87
2018-05-16T04:48:40.305Z,16.60
2018-05-16T04:51:06.507Z,16.33
2018-05-16T04:53:32.705Z,17.40
2018-05-16T04:55:58.915Z,16.83
2018-05-16T04:58:25.210Z,16.40
2018-05-16T05:00:51.793Z,17.40
2018-05-16T05:03:18.837Z,17.47
2018-05-16T05:05:45.068Z,17.97
2018-05-16T05:08:11.382Z,17.30
2018-05-16T05:10:38.324Z,18.80
2018-05-16T05:13:05.272Z,18.37
2018-05-16T05:15:32.277Z,17.67
2018-05-16T05:17:58.511Z,19.47
2018-05-16T05:20:24.713Z,16.77
2018-05-16T05:22:51.236Z,18.10
2018-05-16T05:25:17.462Z,17.33
2018-05-16T05:27:43.643Z,18.83
2018-05-16T05:30:11.088Z,19.37
2018-05-16T05:32:37.286Z,17.83
2018-05-16T05:35:03.505Z,17.40
2018-05-16T05:37:30.508Z,19.80
2018-05-16T05:39:56.716Z,19.03
2018-05-16T05:42:22.931Z,18.50
2018-05-16T05:44:49.129Z,17.70
2018-05-16T05:47:15.324Z,19.80
2018-05-16T05:49:41.621Z,18.83
2018-05-16T05:52:07.825Z,18.67
2018-05-16T05:54:34.048Z,17.87
2018-05-16T05:57:00.266Z,18.90
2018-05-16T05:59:27.265Z,19.50
2018-05-16T06:01:53.480Z,19.30
2018-05-16T06:04:19.670Z,19.70
2018-05-16T06:06:46.680Z,19.57
2018-05-16T06:09:12.880Z,19.63
2018-05-16T06:11:39.089Z,20.60
2018-05-16T06:14:05.313Z,19.73
2018-05-16T06:16:31.588Z,20.07
2018-05-16T06:18:58.218Z,19.67
2018-05-16T06:21:24.398Z,19.87
2018-05-16T06:23:50.594Z,20.03
2018-05-16T06:26:16.796Z,21.67
2018-05-16T06:28:43.056Z,20.73
2018-05-16T06:31:09.236Z,20.87
2018-05-16T06:33:35.428Z,19.87
2018-05-16T06:36:02.393Z,19.73
2018-05-16T06:38:28.668Z,19.53
2018-05-16T06:40:54.883Z,20.83
2018-05-16T06:43:21.201Z,21.33
2018-05-16T06:45:47.503Z,20.27
2018-05-16T06:48:13.628Z,21.80
2018-05-16T06:50:40.735Z,20.10
2018-05-16T06:53:06.929Z,20.63
2018-05-16T06:55:33.127Z,20.43
2018-05-16T06:58:00.056Z,21.77
2018-05-16T07:00:26.276Z,21.47
2018-05-16T07:02:52.500Z,21.83
2018-05-16T07:05:18.697Z,20.93
2018-05-16T07:07:44.899Z,20.80
2018-05-16T07:10:21.843Z,22.63
2018-05-16T07:12:48.052Z,21.07
2018-05-16T07:15:14.268Z,22.13
2018-05-16T07:17:40.480Z,23.13
2018-05-16T07:20:06.684Z,22.77
2018-05-16T07:22:33.617Z,21.07
2018-05-16T07:25:00.009Z,23.37
2018-05-16T07:27:26.194Z,24.63
2018-05-16T07:29:53.140Z,23.93
2018-05-16T07:32:20.096Z,23.13
2018-05-16T07:34:47.032Z,24.57
2018-05-16T07:37:14.390Z,22.30
2018-05-16T07:39:41.320Z,23.33
2018-05-16T07:42:08.264Z,24.17
2018-05-16T07:44:34.570Z,21.30
2018-05-16T07:47:00.856Z,25.30
2018-05-16T07:49:27.103Z,23.20
2018-05-16T07:51:53.434Z,23.30
2018-05-16T07:54:19.644Z,22.83
2018-05-16T07:56:45.944Z,20.87
2018-05-16T07:59:12.296Z,20.70
2018-05-16T08:01:38.504Z,21.23
2018-05-16T08:04:04.713Z,20.60
2018-05-16T08:06:30.957Z,21.53
2018-05-16T08:08:57.152Z,23.20
2018-05-16T08:11:23.356Z,20.90
2018-05-16T08:13:49.544Z,20.33
2018-05-16T08:16:16.173Z,20.90
2018-05-16T08:18:42.523Z,20.20
2018-05-16T08:21:08.708Z,21.90
2018-05-16T08:23:34.960Z,20.57
2018-05-16T08:26:01.157Z,20.80
2018-05-16T08:28:27.361Z,21.90
2018-05-16T08:30:54.303Z,19.47
2018-05-16T08:33:21.248Z,21.83
2018-05-16T08:35:48.205Z,22.37
2018-05-16T08:38:15.140Z,23.70
2018-05-16T08:40:42.154Z,24.97
2018-05-16T08:43:08.304Z,22.57
2018-05-16T08:45:34.508Z,21.13
2018-05-16T08:48:00.704Z,20.90
2018-05-16T08:50:26.893Z,21.27
2018-05-16T08:52:53.954Z,20.60
2018-05-16T08:55:20.885Z,19.57
2018-05-16T08:57:47.097Z,18.40
2018-05-16T09:00:13.290Z,17.73
2018-05-16T09:02:39.469Z,17.87
2018-05-16T09:05:05.800Z,17.93
2018-05-16T09:07:31.980Z,16.77
2018-05-16T09:09:58.165Z,16.27
2018-05-16T09:12:25.109Z,16.83
2018-05-16T09:14:52.152Z,15.43
2018-05-16T09:17:18.374Z,18.23
2018-05-16T09:19:44.585Z,17.77
2018-05-16T09:22:10.812Z,19.70
2018-05-16T09:24:37.005Z,19.13
2018-05-16T09:27:03.236Z,19.93
2018-05-16T09:29:29.433Z,20.17
2018-05-16T09:31:56.361Z,20.00
2018-05-16T09:34:22.548Z,21.17
2018-05-16T09:36:48.772Z,19.83
2018-05-16T09:39:14.969Z,21.23
2018-05-16T09:41:41.917Z,22.00
2018-05-16T09:44:08.856Z,21.40
2018-05-16T09:46:35.785Z,20.20
2018-05-16T09:49:02.003Z,21.20
2018-05-16T09:51:28.231Z,23.07
2018-05-16T09:53:54.644Z,21.47
2018-05-16T09:56:20.840Z,19.97
2018-05-16T09:58:47.024Z,19.40
2018-05-16T10:01:13.250Z,20.77
2018-05-16T10:03:40.409Z,18.00
2018-05-16T10:06:06.629Z,16.47
2018-05-16T10:08:32.841Z,17.13
2018-05-16T10:10:59.158Z,17.60
2018-05-16T10:13:25.373Z,17.07
2018-05-16T10:15:51.579Z,17.50
2018-05-16T10:18:18.529Z,19.20
2018-05-16T10:20:45.466Z,17.80
2018-05-16T10:23:12.416Z,16.97
2018-05-16T10:25:38.612Z,17.43
2018-05-16T10:28:04.808Z,17.63
2018-05-16T10:30:30.996Z,18.70
2018-05-16T10:32:57.984Z,17.93
2018-05-16T10:35:24.204Z,18.30
2018-05-16T10:37:50.396Z,17.90
2018-05-16T10:40:17.348Z,17.33
2018-05-16T10:42:44.469Z,16.10
2018-05-16T10:45:10.683Z,15.63
2018-05-16T10:47:36.885Z,19.17
2018-05-16T10:50:03.120Z,21.43
2018-05-16T10:52:29.321Z,21.47
2018-05-16T10:54:56.372Z,23.90
2018-05-16T10:57:23.356Z,23.63
2018-05-16T10:59:50.249Z,22.37
2018-05-16T11:02:17.196Z,22.20
2018-05-16T11:04:44.153Z,21.23
2018-05-16T11:07:11.088Z,17.67
2018-05-16T11:09:38.052Z,20.50
2018-05-16T11:12:04.393Z,16.13
2018-05-16T11:14:30.600Z,14.10
2018-05-16T11:16:57.572Z,13.30
2018-05-16T11:19:24.133Z,13.20
2018-05-16T11:21:50.320Z,14.10
2018-05-16T11:24:16.512Z,12.93
2018-05-16T11:26:42.730Z,13.60
2018-05-16T11:29:08.933Z,13.87
2018-05-16T11:31:35.140Z,14.70
2018-05-16T11:34:01.744Z,14.63
2018-05-16T11:36:27.949Z,13.80
2018-05-16T11:38:54.195Z,14.73
2018-05-16T11:41:21.153Z,13.97
2018-05-16T11:43:48.578Z,13.57
2018-05-16T11:46:14.782Z,13.43
2018-05-16T11:48:41.028Z,13.30
2018-05-16T11:51:07.933Z,12.83
2018-05-16T11:53:34.901Z,11.97
2018-05-16T11:56:01.096Z,11.27
2018-05-16T11:58:28.031Z,10.43
2018-05-16T12:00:54.256Z,10.80
2018-05-16T12:03:20.568Z,10.57
2018-05-16T12:05:46.766Z,10.60
2018-05-16T12:08:12.940Z,9.47
2018-05-16T12:10:39.152Z,8.20
2018-05-16T12:13:05.396Z,8.80
2018-05-16T12:15:32.373Z,10.67
2018-05-16T12:17:58.569Z,9.53
2018-05-16T12:20:24.764Z,11.43
2018-05-16T12:22:51.082Z,9.03
2018-05-16T12:25:17.300Z,12.57
2018-05-16T12:27:43.504Z,10.77
2018-05-16T12:30:10.468Z,11.27
2018-05-16T12:32:36.724Z,12.87
2018-05-16T12:35:02.929Z,10.00
2018-05-16T12:37:29.157Z,12.20
2018-05-16T12:39:56.102Z,12.63
2018-05-16T12:42:23.079Z,18.20
2018-05-16T12:44:49.348Z,12.67
2018-05-16T12:47:15.595Z,11.23
2018-05-16T12:49:42.569Z,10.37
2018-05-16T12:52:08.799Z,11.30
2018-05-16T12:54:35.126Z,11.87
2018-05-16T12:57:01.662Z,18.87
2018-05-16T12:59:27.839Z,11.77
2018-05-16T13:01:54.133Z,12.97
2018-05-16T13:04:21.232Z,11.17
2018-05-16T13:06:47.501Z,12.13
2018-05-16T13:09:13.686Z,13.10
2018-05-16T13:11:39.848Z,19.17
2018-05-16T13:14:06.117Z,15.87
2018-05-16T13:16:32.260Z,11.80
2018-05-16T13:18:58.432Z,12.57
2018-05-16T13:21:24.773Z,13.80
2018-05-16T13:23:50.921Z,12.80
2018-05-16T13:26:17.089Z,13.73
2018-05-16T13:28:43.224Z,12.60
2018-05-16T13:31:10.123Z,13.07
2018-05-16T13:33:36.284Z,14.60
2018-05-16T13:36:02.466Z,14.47
2018-05-16T13:38:28.620Z,19.90
2018-05-16T13:40:54.777Z,15.53
2018-05-16T13:43:21.252Z,17.40
2018-05-16T13:45:47.404Z,17.90
2018-05-16T13:48:13.565Z,17.90
2018-05-16T13:50:40.494Z,14.27
2018-05-16T13:53:06.660Z,19.97
2018-05-16T13:55:34.096Z,15.77
2018-05-16T13:58:01.020Z,18.43
2018-05-16T14:00:27.295Z,14.80
2018-05-16T14:02:53.457Z,16.90
2018-05-16T14:05:19.644Z,15.80
2018-05-16T14:07:46.543Z,18.93
2018-05-16T14:10:12.743Z,19.10
2018-05-16T14:12:38.896Z,14.87
2018-05-16T14:15:05.064Z,13.13
2018-05-16T14:17:31.217Z,15.83
2018-05-16T14:19:57.444Z,19.90
2018-05-16T14:22:23.576Z,18.43
2018-05-16T14:24:49.766Z,13.40
2018-05-16T14:27:16.373Z,16.60
2018-05-16T14:29:42.591Z,9.70
2018-05-16T14:32:08.745Z,13.43
2018-05-16T14:34:34.896Z,14.57
2018-05-16T14:37:01.781Z,12.83
2018-05-16T14:39:28.435Z,14.33
2018-05-16T14:41:54.609Z,16.23
2018-05-16T14:44:21.504Z,12.90
2018-05-16T14:46:48.607Z,14.00
2018-05-16T14:49:14.811Z,11.23
2018-05-16T14:51:40.989Z,15.87
2018-05-16T14:54:07.159Z,16.00
2018-05-16T14:56:33.345Z,10.97
2018-05-16T14:58:59.547Z,16.90
2018-05-16T15:01:26.443Z,14.47
2018-05-16T15:03:52.725Z,14.50
2018-05-16T15:06:18.852Z,14.60
2018-05-16T15:08:45.791Z,13.37
2018-05-16T15:11:12.837Z,12.23
2018-05-16T15:13:39.756Z,10.30
2018-05-16T15:16:05.940Z,14.03
2018-05-16T15:18:32.096Z,17.80
2018-05-16T15:20:58.276Z,15.83
2018-05-16T15:23:25.217Z,12.03
2018-05-16T15:25:52.126Z,13.20
2018-05-16T15:28:18.296Z,18.23
2018-05-16T15:30:45.216Z,11.03
2018-05-16T15:33:11.437Z,11.30
2018-05-16T15:35:37.654Z,13.87
2018-05-16T15:38:03.813Z,17.83
2018-05-16T15:40:30.723Z,11.23
2018-05-16T15:42:56.933Z,14.60
2018-05-16T15:45:23.089Z,16.83
2018-05-16T15:47:49.321Z,12.50
2018-05-16T15:50:15.513Z,14.33
2018-05-16T15:52:41.724Z,18.93
2018-05-16T15:55:07.887Z,11.17
2018-05-16T15:57:34.854Z,14.93
2018-05-16T16:00:01.024Z,18.27
2018-05-16T16:02:27.170Z,17.67
2018-05-16T16:04:53.489Z,18.13
2018-05-16T16:07:19.646Z,10.87
2018-05-16T16:09:45.820Z,18.17
2018-05-16T16:12:12.736Z,13.80
2018-05-16T16:14:38.891Z,13.13
2018-05-16T16:17:05.162Z,15.57
2018-05-16T16:19:31.495Z,17.17
2018-05-16T16:22:00.592Z,17.57
2018-05-16T16:24:26.759Z,17.43
2018-05-16T16:26:53.684Z,18.30
2018-05-16T16:29:19.827Z,13.97
2018-05-16T16:31:46.006Z,15.07
2018-05-16T16:34:12.207Z,16.67
2018-05-16T16:36:38.439Z,14.10
2018-05-16T16:39:05.655Z,14.63
2018-05-16T16:41:31.796Z,15.00
2018-05-16T16:43:57.982Z,12.83
2018-05-16T16:46:24.291Z,16.63
2018-05-16T16:48:50.465Z,14.77
2018-05-16T16:51:16.624Z,19.10
2018-05-16T16:53:43.520Z,19.50
2018-05-16T16:56:10.432Z,16.47
2018-05-16T16:58:36.664Z,16.37
2018-05-16T17:01:02.897Z,17.37
2018-05-16T17:03:29.068Z,20.07
2018-05-16T17:05:55.264Z,13.90
2018-05-16T17:08:21.460Z,13.10
2018-05-16T17:10:48.380Z,17.43
2018-05-16T17:13:14.543Z,17.07
2018-05-16T17:15:41.469Z,16.33
2018-05-16T17:18:07.671Z,13.90
2018-05-16T17:20:33.899Z,14.03
2018-05-16T17:23:00.072Z,15.67
2018-05-16T17:25:27.066Z,13.83
2018-05-16T17:27:54.122Z,16.70
2018-05-16T17:30:20.383Z,17.53
2018-05-16T17:32:47.241Z,19.43
2018-05-16T17:35:14.248Z,18.20
2018-05-16T17:37:40.423Z,16.27
2018-05-16T17:40:06.589Z,15.10
2018-05-16T17:42:32.784Z,18.33
2018-05-16T17:44:58.958Z,15.23
2018-05-16T17:47:25.108Z,21.70
2018-05-16T17:49:51.406Z,15.50
2018-05-16T17:52:17.548Z,19.53
2018-05-16T17:54:43.748Z,13.97
2018-05-16T17:57:09.920Z,19.37
2018-05-16T17:59:36.871Z,26.23
2018-05-16T18:02:03.797Z,24.67
2018-05-16T18:04:29.957Z,13.20
2018-05-16T18:06:56.972Z,23.97
2018-05-16T18:09:23.142Z,22.30
2018-05-16T18:11:49.921Z,19.47
2018-05-16T18:14:28.425Z,16.97
2018-05-16T18:17:06.835Z,18.87
2018-05-16T18:19:32.920Z,14.03
2018-05-16T18:21:59.870Z,14.83
2018-05-16T18:24:26.936Z,13.93
2018-05-16T18:26:53.171Z,16.60
2018-05-16T18:29:19.324Z,16.90
2018-05-16T18:31:45.503Z,26.27
2018-05-16T18:34:12.400Z,20.77
2018-05-16T18:36:39.000Z,22.37
2018-05-16T18:39:05.196Z,16.43
2018-05-16T18:41:31.348Z,16.70
2018-05-16T18:44:01.818Z,17.10
2018-05-16T18:46:28.129Z,22.37
2018-05-16T18:48:54.296Z,14.37
2018-05-16T18:51:20.463Z,22.73
2018-05-16T18:53:47.797Z,23.43
2018-05-16T18:56:15.965Z,16.60
2018-05-16T18:58:44.584Z,16.03
2018-05-16T19:01:23.340Z,18.93
2018-05-16T19:03:49.891Z,17.73
2018-05-16T19:06:16.076Z,18.50
2018-05-16T19:08:42.269Z,21.90
2018-05-16T19:11:08.420Z,12.03
2018-05-16T19:13:34.573Z,14.73
2018-05-16T19:16:00.831Z,23.90
2018-05-16T19:18:27.005Z,15.20
2018-05-16T19:20:55.445Z,16.53
2018-05-16T19:23:21.860Z,23.17
2018-05-16T19:25:48.276Z,15.47
2018-05-16T19:28:14.421Z,15.93
2018-05-16T19:30:40.582Z,19.03
2018-05-16T19:33:07.602Z,16.90
2018-05-16T19:35:33.771Z,18.07
2018-05-16T19:38:00.684Z,16.97
2018-05-16T19:40:26.866Z,23.10
2018-05-16T19:42:53.069Z,16.87
2018-05-16T19:45:20.065Z,24.43
2018-05-16T19:47:46.307Z,16.47
2018-05-16T19:50:12.474Z,17.13
2018-05-16T19:52:39.414Z,22.13
2018-05-16T19:55:05.680Z,17.00
2018-05-16T19:57:31.849Z,17.97
2018-05-16T19:59:58.037Z,20.67
2018-05-16T20:02:24.193Z,18.60
2018-05-16T20:04:50.366Z,14.07
2018-05-16T20:07:17.264Z,23.97
2018-05-16T20:09:43.431Z,14.03
2018-05-16T20:12:10.342Z,20.57
2018-05-16T20:14:36.553Z,18.27
2018-05-16T20:17:02.934Z,19.77
2018-05-16T20:19:29.089Z,17.73
2018-05-16T20:21:55.251Z,17.57
2018-05-16T20:24:21.421Z,20.43
2018-05-16T20:26:48.324Z,25.90
2018-05-16T20:29:14.606Z,18.07
2018-05-16T20:31:41.512Z,23.60
2018-05-16T20:34:07.740Z,23.73
2018-05-16T20:36:33.983Z,23.40
2018-05-16T20:39:00.315Z,24.70
2018-05-16T20:41:26.496Z,17.63
2018-05-16T20:43:52.912Z,20.73
2018-05-16T20:46:19.189Z,17.10
2018-05-16T20:48:45.339Z,21.80
2018-05-16T20:51:11.636Z,21.03
2018-05-16T20:53:37.900Z,22.83
2018-05-16T20:56:04.055Z,25.23
2018-05-16T20:58:31.000Z,19.73
2018-05-16T21:00:57.163Z,22.60
2018-05-16T21:03:23.344Z,15.83
2018-05-16T21:05:50.302Z,13.77
2018-05-16T21:08:17.316Z,14.40
2018-05-16T21:10:43.479Z,21.70
2018-05-16T21:13:09.622Z,15.87
2018-05-16T21:15:35.801Z,18.80
2018-05-16T21:18:02.010Z,21.20
2018-05-16T21:20:28.169Z,26.37
2018-05-16T21:22:54.360Z,17.17
2018-05-16T21:25:20.521Z,19.17
2018-05-16T21:27:46.815Z,26.30
2018-05-16T21:30:12.973Z,19.43
2018-05-16T21:32:39.147Z,18.63
2018-05-16T21:35:05.306Z,17.83
2018-05-16T21:37:31.586Z,15.93
2018-05-16T21:39:57.815Z,19.80
2018-05-16T21:42:23.973Z,21.33
2018-05-16T21:44:50.178Z,17.13
2018-05-16T21:47:16.496Z,23.07
2018-05-16T21:49:43.408Z,18.73
2018-05-16T21:52:09.587Z,20.33
2018-05-16T21:54:35.735Z,26.40
2018-05-16T21:57:01.899Z,32.13
2018-05-16T21:59:28.096Z,20.80
2018-05-16T22:01:54.256Z,16.87
2018-05-16T22:04:20.416Z,16.40
2018-05-16T22:06:46.608Z,24.53
2018-05-16T22:09:12.789Z,18.63
2018-05-16T22:11:38.959Z,19.60
2018-05-16T22:14:05.096Z,21.40
2018-05-16T22:16:31.259Z,24.63
2018-05-16T22:18:57.407Z,20.93
2018-05-16T22:21:23.571Z,21.90
2018-05-16T22:23:49.777Z,21.57
2018-05-16T22:26:15.933Z,21.77
2018-05-16T22:28:42.132Z,17.40
2018-05-16T22:31:14.420Z,19.80
2018-05-16T22:33:46.864Z,21.50
2018-05-16T22:36:19.192Z,17.67
2018-05-16T22:38:51.312Z,16.97
2018-05-16T22:41:23.640Z,17.03
2018-05-16T22:44:00.561Z,19.67
2018-05-16T22:46:26.744Z,24.47
2018-05-16T22:48:53.661Z,13.70
2018-05-16T22:51:19.850Z,16.47
2018-05-16T22:53:46.012Z,17.50
2018-05-16T22:56:12.178Z,16.87
2018-05-16T22:58:39.060Z,19.80
2018-05-16T23:01:05.227Z,19.17
2018-05-16T23:03:31.409Z,19.00
2018-05-16T23:05:57.614Z,20.87
2018-05-16T23:08:23.801Z,16.07
2018-05-16T23:10:50.033Z,14.67
2018-05-16T23:13:16.302Z,16.93
2018-05-16T23:15:42.443Z,20.40
2018-05-16T23:18:08.584Z,17.63
2018-05-16T23:20:34.770Z,19.43
2018-05-16T23:23:01.674Z,21.77
2018-05-16T23:25:27.933Z,18.20
2018-05-16T23:27:54.875Z,19.80
2018-05-16T23:30:21.032Z,16.43
2018-05-16T23:32:47.541Z,22.13
2018-05-16T23:35:13.697Z,15.27
2018-05-16T23:37:39.872Z,21.30
2018-05-16T23:40:06.020Z,15.80
2018-05-16T23:42:32.168Z,19.43
2018-05-16T23:44:59.069Z,13.40
2018-05-16T23:47:25.264Z,20.20
2018-05-16T23:49:51.417Z,22.90
2018-05-16T23:52:17.572Z,16.10
2018-05-16T23:54:43.730Z,16.93
2018-05-16T23:57:09.892Z,27.83
2018-05-16T23:59:36.084Z,20.53
